createdAt,value
2022-10-09T00:00:53.480Z,100661.35
2022-10-09T00:02:58.672Z,100658.1
2022-10-09T00:05:04.220Z,100656.03
2022-10-09T00:07:09.700Z,100661.38
2022-10-09T00:09:14.905Z,100669.02
2022-10-09T00:11:19.908Z,100669.28
2022-10-09T00:13:25.372Z,100670.22
2022-10-09T00:15:31.034Z,100671.61
2022-10-09T00:17:36.780Z,100670.48
2022-10-09T00:19:41.972Z,100675.97
2022-10-09T00:21:47.745Z,100678.03
2022-10-09T00:23:53.535Z,100676.52
2022-10-09T00:25:58.663Z,100676.11
2022-10-09T00:28:03.970Z,100675.7
2022-10-09T00:30:09.345Z,100681.1
2022-10-09T00:32:14.633Z,100677.89
2022-10-09T00:34:19.875Z,100682.44
2022-10-09T00:36:25.406Z,100684
2022-10-09T00:38:30.866Z,100684.69
2022-10-09T00:40:36.542Z,100689.27
2022-10-09T00:42:41.512Z,100688.25
2022-10-09T00:44:47.185Z,100687.52
2022-10-09T00:46:53.092Z,100684.57
2022-10-09T00:48:58.488Z,100687.44
2022-10-09T00:51:04.177Z,100683.73
2022-10-09T00:53:09.582Z,100687.59
2022-10-09T00:55:17.711Z,100688.52
2022-10-09T00:57:23.311Z,100690.98
2022-10-09T00:59:28.561Z,100693.02
2022-10-09T01:01:33.731Z,100693.17
2022-10-09T01:03:39.143Z,100691.39
2022-10-09T01:05:44.646Z,100692.92
2022-10-09T01:07:49.566Z,100695.03
2022-10-09T01:09:54.785Z,100701
2022-10-09T01:12:00.102Z,100706.16
2022-10-09T01:14:05.559Z,100703.55
2022-10-09T01:16:10.905Z,100703.66
2022-10-09T01:18:16.453Z,100706.43
2022-10-09T01:20:21.323Z,100709.96
2022-10-09T01:22:26.301Z,100716.11
2022-10-09T01:24:31.934Z,100712.23
2022-10-09T01:26:37.359Z,100715
2022-10-09T01:28:42.467Z,100716.19
2022-10-09T01:30:48.149Z,100718.25
2022-10-09T01:32:53.405Z,100718.65
2022-10-09T01:34:58.637Z,100720.45
2022-10-09T01:37:03.835Z,100720.18
2022-10-09T01:39:10.338Z,100722.64
2022-10-09T01:41:15.299Z,100722.8
2022-10-09T01:43:20.495Z,100723.03
2022-10-09T01:45:26.898Z,100727.63
2022-10-09T01:47:32.123Z,100731.66
2022-10-09T01:49:37.297Z,100733.27
2022-10-09T01:51:42.324Z,100735.74
2022-10-09T01:53:47.522Z,100737.86
2022-10-09T01:55:52.794Z,100739.14
2022-10-09T01:57:57.921Z,100741.08
2022-10-09T02:00:03.135Z,100745.05
2022-10-09T02:02:08.781Z,100741.27
2022-10-09T02:04:18.865Z,100744.66
2022-10-09T02:06:24.079Z,100748.7
2022-10-09T02:08:29.296Z,100751.66
2022-10-09T02:10:34.458Z,100750.44
2022-10-09T02:12:39.638Z,100756.81
2022-10-09T02:14:44.902Z,100759.45
2022-10-09T02:16:50.182Z,100758.34
2022-10-09T02:18:55.620Z,100760.63
2022-10-09T02:21:01.786Z,100765.06
2022-10-09T02:23:07.135Z,100766.34
2022-10-09T02:25:12.585Z,100769.64
2022-10-09T02:27:18.019Z,100777.4
2022-10-09T02:29:23.466Z,100778.84
2022-10-09T02:31:29.484Z,100776.61
2022-10-09T02:33:35.382Z,100777.06
2022-10-09T02:35:40.426Z,100782.59
2022-10-09T02:37:46.256Z,100786.22
2022-10-09T02:39:51.556Z,100782.09
2022-10-09T02:41:57.035Z,100785.34
2022-10-09T02:44:02.590Z,100785.23
2022-10-09T02:46:08.122Z,100786.2
2022-10-09T02:48:13.685Z,100790.02
2022-10-09T02:50:18.627Z,100790.84
2022-10-09T02:52:23.628Z,100794.08
2022-10-09T02:54:31.961Z,100799.03
2022-10-09T02:56:40.238Z,100798.04
2022-10-09T02:58:45.528Z,100797.44
2022-10-09T03:00:50.929Z,100798.78
2022-10-09T03:02:56.003Z,100799.14
2022-10-09T03:05:01.532Z,100805.84
2022-10-09T03:07:06.879Z,100806.34
2022-10-09T03:09:12.365Z,100804.58
2022-10-09T03:11:17.425Z,100806.03
2022-10-09T03:13:23.283Z,100810.73
2022-10-09T03:15:28.516Z,100807.38
2022-10-09T03:17:33.945Z,100806.28
2022-10-09T03:19:39.125Z,100815.81
2022-10-09T03:21:44.279Z,100813.65
2022-10-09T03:23:49.704Z,100818.69
2022-10-09T03:25:55.187Z,100815.22
2022-10-09T03:28:00.425Z,100825.55
2022-10-09T03:30:05.431Z,100830.94
2022-10-09T03:32:10.758Z,100838.41
2022-10-09T03:34:16.928Z,100849.42
2022-10-09T03:36:22.688Z,100846.48
2022-10-09T03:38:27.744Z,100848.22
2022-10-09T03:40:32.935Z,100844.02
2022-10-09T03:42:37.980Z,100846.83
2022-10-09T03:44:43.698Z,100845.5
2022-10-09T03:46:49.137Z,100847.02
2022-10-09T03:48:54.616Z,100850.02
2022-10-09T03:51:00.512Z,100846.69
2022-10-09T03:53:05.942Z,100845.17
2022-10-09T03:55:11.454Z,100843.23
2022-10-09T03:57:16.657Z,100845.05
2022-10-09T03:59:21.880Z,100851.72
2022-10-09T04:01:27.291Z,100854.52
2022-10-09T04:03:33.222Z,100859.01
2022-10-09T04:05:38.819Z,100861.27
2022-10-09T04:07:44.596Z,100860.87
2022-10-09T04:09:50.247Z,100863.05
2022-10-09T04:11:55.656Z,100861.89
2022-10-09T04:14:00.631Z,100864.53
2022-10-09T04:16:06.240Z,100865.05
2022-10-09T04:18:11.828Z,100866.52
2022-10-09T04:20:16.841Z,100864.97
2022-10-09T04:22:22.486Z,100864.36
2022-10-09T04:24:30.975Z,100873
2022-10-09T04:26:36.222Z,100873.77
2022-10-09T04:28:41.757Z,100875.52
2022-10-09T04:30:47.352Z,100883.7
2022-10-09T04:32:53.196Z,100884
2022-10-09T04:34:58.323Z,100885.56
2022-10-09T04:37:03.467Z,100890.66
2022-10-09T04:39:08.729Z,100896.59
2022-10-09T04:41:13.885Z,100904.19
2022-10-09T04:43:19.011Z,100902.05
2022-10-09T04:45:24.334Z,100905.3
2022-10-09T04:47:29.838Z,100904.11
2022-10-09T04:49:34.944Z,100910.3
2022-10-09T04:51:40.486Z,100914.84
2022-10-09T04:53:45.882Z,100914.2
2022-10-09T04:55:51.172Z,100919.63
2022-10-09T04:57:56.498Z,100919.38
2022-10-09T05:00:01.728Z,100918.55
2022-10-09T05:02:08.001Z,100913.98
2022-10-09T05:04:14.522Z,100915.55
2022-10-09T05:06:20.142Z,100914.87
2022-10-09T05:08:25.744Z,100917.18
2022-10-09T05:10:32.472Z,100917.81
2022-10-09T05:12:39.652Z,100930.86
2022-10-09T05:14:46.148Z,100934.84
2022-10-09T05:17:15.167Z,100935.5
2022-10-09T05:19:27.584Z,100934.35
2022-10-09T05:21:33.205Z,100936.09
2022-10-09T05:23:39.182Z,100937.73
2022-10-09T05:25:45.122Z,100936.94
2022-10-09T05:27:52.099Z,100950.89
2022-10-09T05:29:58.622Z,100952
2022-10-09T05:32:04.729Z,100959.4
2022-10-09T05:34:10.683Z,100951.34
2022-10-09T05:36:16.063Z,100954.72
2022-10-09T05:38:21.688Z,100965.37
2022-10-09T05:40:30.817Z,100958.8
2022-10-09T05:42:36.838Z,100962.17
2022-10-09T05:44:43.261Z,100974.29
2022-10-09T05:46:48.848Z,100977.06
2022-10-09T05:48:54.171Z,100975.19
2022-10-09T05:51:00.025Z,100980.7
2022-10-09T05:53:06.410Z,100984.22
2022-10-09T05:55:15.761Z,100983.64
2022-10-09T05:57:21.243Z,100988.55
2022-10-09T05:59:27.184Z,100993.93
2022-10-09T06:01:32.895Z,100994.09
2022-10-09T06:03:39.449Z,101002.16
2022-10-09T06:05:45.079Z,101010.62
2022-10-09T06:07:50.544Z,101014.8
2022-10-09T06:09:56.795Z,101018.98
2022-10-09T06:12:02.212Z,101023.14
2022-10-09T06:14:08.718Z,101026.09
2022-10-09T06:16:14.576Z,101033.04
2022-10-09T06:18:21.454Z,101041.98
2022-10-09T06:20:27.721Z,101041.73
2022-10-09T06:22:34.265Z,101041.07
2022-10-09T06:24:40.500Z,101042.45
2022-10-09T06:26:47.720Z,101049.73
2022-10-09T06:28:54.432Z,101051.67
2022-10-09T06:31:04.134Z,101044.95
2022-10-09T06:33:11.100Z,101051.07
2022-10-09T06:35:17.120Z,101064.09
2022-10-09T06:37:23.883Z,101065.34
2022-10-09T06:39:30.103Z,101065.06
2022-10-09T06:41:36.912Z,101065.54
2022-10-09T06:43:43.850Z,101063.39
2022-10-09T06:45:50.303Z,101068
2022-10-09T06:47:56.647Z,101075.85
2022-10-09T06:50:03.916Z,101081.17
2022-10-09T06:52:10.202Z,101083.09
2022-10-09T06:54:16.325Z,101090.97
2022-10-09T06:56:23.302Z,101093.2
2022-10-09T06:58:29.668Z,101095.03
2022-10-09T07:00:35.866Z,101100.7
2022-10-09T07:02:45.936Z,101102.88
2022-10-09T07:04:53.978Z,101101.45
2022-10-09T07:07:00.344Z,101104.68
2022-10-09T07:09:06.687Z,101109.27
2022-10-09T07:11:12.797Z,101108.16
2022-10-09T07:13:19.044Z,101114.72
2022-10-09T07:15:25.454Z,101119.98
2022-10-09T07:17:32.003Z,101117.41
2022-10-09T07:19:40.130Z,101121.52
2022-10-09T07:21:46.883Z,101121.66
2022-10-09T07:23:53.777Z,101124.05
2022-10-09T07:26:00.048Z,101123.48
2022-10-09T07:28:06.348Z,101129.81
2022-10-09T07:30:12.543Z,101130.11
2022-10-09T07:32:18.973Z,101127.76
2022-10-09T07:34:25.843Z,101129.72
2022-10-09T07:36:32.353Z,101137.56
2022-10-09T07:38:38.838Z,101134.95
2022-10-09T07:40:45.428Z,101137.61
2022-10-09T07:42:53.553Z,101140.65
2022-10-09T07:44:59.828Z,101145.72
2022-10-09T07:47:05.990Z,101144.31
2022-10-09T07:49:13.275Z,101141.59
2022-10-09T07:51:19.606Z,101140.41
2022-10-09T07:53:25.637Z,101143.09
2022-10-09T07:55:34.811Z,101146.08
2022-10-09T07:57:41.751Z,101150.3
2022-10-09T07:59:47.966Z,101152.39
2022-10-09T08:01:54.450Z,101155.06
2022-10-09T08:04:01.059Z,101156.25
2022-10-09T08:06:07.919Z,101160.09
2022-10-09T08:08:15.775Z,101157.26
2022-10-09T08:10:23.351Z,101158.53
2022-10-09T08:12:30.365Z,101157.66
2022-10-09T08:14:40.012Z,101164.34
2022-10-09T08:16:47.762Z,101165.87
2022-10-09T08:18:53.882Z,101171.38
2022-10-09T08:21:00.228Z,101172.14
2022-10-09T08:23:06.674Z,101172.19
2022-10-09T08:25:13.198Z,101175.64
2022-10-09T08:27:19.670Z,101175.19
2022-10-09T08:29:26.184Z,101174.3
2022-10-09T08:31:32.553Z,101179.11
2022-10-09T08:33:40.031Z,101185.84
2022-10-09T08:35:46.877Z,101185.48
2022-10-09T08:37:53.583Z,101187.66
2022-10-09T08:40:00.879Z,101183.3
2022-10-09T08:42:07.782Z,101187.85
2022-10-09T08:44:14.153Z,101195.8
2022-10-09T08:46:22.843Z,101199.55
2022-10-09T08:48:29.696Z,101194.72
2022-10-09T08:50:36.487Z,101202.62
2022-10-09T08:52:45.734Z,101199.86
2022-10-09T08:54:55.997Z,101205.38
2022-10-09T08:57:02.692Z,101206.44
2022-10-09T08:59:09.290Z,101208.53
2022-10-09T09:01:16.274Z,101207.39
2022-10-09T09:03:23.405Z,101208.05
2022-10-09T09:05:30.636Z,101211.94
2022-10-09T09:07:37.015Z,101216.84
2022-10-09T09:09:43.313Z,101216.98
2022-10-09T09:11:52.426Z,101220.56
2022-10-09T09:13:59.380Z,101219.69
2022-10-09T09:16:06.049Z,101218.61
2022-10-09T09:18:14.870Z,101220.8
2022-10-09T09:20:21.176Z,101218.45
2022-10-09T09:22:27.452Z,101214.58
2022-10-09T09:24:34.405Z,101214.96
2022-10-09T09:26:40.735Z,101216.2
2022-10-09T09:28:47.360Z,101219.48
2022-10-09T09:30:54.667Z,101212.78
2022-10-09T09:33:01.194Z,101215.05
2022-10-09T09:35:07.737Z,101219.5
2022-10-09T09:37:15.751Z,101219.94
2022-10-09T09:40:44.427Z,101224.45
2022-10-09T09:42:53.915Z,101227.65
2022-10-09T09:45:04.623Z,101226.3
2022-10-09T09:47:11.874Z,101234.27
2022-10-09T09:49:18.467Z,101234.81
2022-10-09T09:51:30.448Z,101236.22
2022-10-09T09:53:38.023Z,101235.45
2022-10-09T09:55:44.369Z,101240.75
2022-10-09T09:57:52.630Z,101242.84
2022-10-09T09:59:59.292Z,101241.05
2022-10-09T10:02:07.016Z,101240.02
2022-10-09T10:04:14.738Z,101244.89
2022-10-09T10:06:23.246Z,101239.52
2022-10-09T10:08:33.646Z,101243.41
2022-10-09T10:10:43.973Z,101244.52
2022-10-09T10:12:52.455Z,101247.45
2022-10-09T10:15:03.077Z,101248.59
2022-10-09T10:17:16.609Z,101255.55
2022-10-09T10:19:24.902Z,101253
2022-10-09T10:21:32.174Z,101253.8
2022-10-09T10:23:40.132Z,101257.52
2022-10-09T10:25:48.785Z,101254.2
2022-10-09T10:28:00.605Z,101258.17
2022-10-09T10:30:09.200Z,101263.16
2022-10-09T10:32:17.276Z,101257.67
2022-10-09T10:34:24.121Z,101260.77
2022-10-09T10:36:31.573Z,101259.63
2022-10-09T10:38:38.898Z,101257.3
2022-10-09T10:40:45.969Z,101259.92
2022-10-09T10:42:58.686Z,101264.55
2022-10-09T10:45:05.544Z,101264.22
2022-10-09T10:47:11.753Z,101267.64
2022-10-09T10:49:17.884Z,101276.14
2022-10-09T10:51:25.187Z,101278.49
2022-10-09T10:53:31.447Z,101280.98
2022-10-09T10:55:39.074Z,101281.48
2022-10-09T10:57:45.803Z,101282.91
2022-10-09T10:59:54.900Z,101284.7
2022-10-09T11:02:01.085Z,101282.63
2022-10-09T11:04:10.027Z,101285.16
2022-10-09T11:06:18.043Z,101287.47
2022-10-09T11:08:24.423Z,101279.81
2022-10-09T11:10:34.013Z,101284.28
2022-10-09T11:12:50.586Z,101283.55
2022-10-09T11:14:57.035Z,101282.34
2022-10-09T11:17:05.002Z,101277.53
2022-10-09T11:19:13.994Z,101276.95
2022-10-09T11:21:21.457Z,101284.45
2022-10-09T11:23:30.676Z,101280.44
2022-10-09T11:25:38.112Z,101280.06
2022-10-09T11:27:46.140Z,101283.09
2022-10-09T11:29:54.513Z,101280.81
2022-10-09T11:32:03.912Z,101275.88
2022-10-09T11:34:10.753Z,101276.77
2022-10-09T11:36:17.984Z,101275.94
2022-10-09T11:38:40.124Z,101273.05
2022-10-09T11:40:49.559Z,101277.73
2022-10-09T11:42:57.524Z,101279.15
2022-10-09T11:45:03.825Z,101273.7
2022-10-09T11:47:11.702Z,101271.59
2022-10-09T11:49:17.907Z,101271.56
2022-10-09T11:51:24.272Z,101270.88
2022-10-09T11:53:35.267Z,101270.98
2022-10-09T11:55:41.884Z,101269.56
2022-10-09T11:57:48.836Z,101267.08
2022-10-09T11:59:57.278Z,101266.09
2022-10-09T12:02:04.275Z,101266.98
2022-10-09T12:04:12.705Z,101267.15
2022-10-09T12:06:24.144Z,101268.91
2022-10-09T12:08:31.409Z,101269.47
2022-10-09T12:10:38.418Z,101274.63
2022-10-09T12:12:45.563Z,101280.8
2022-10-09T12:14:54.264Z,101275.22
2022-10-09T12:17:02.566Z,101276.81
2022-10-09T12:19:09.640Z,101276.3
2022-10-09T12:21:17.765Z,101279.64
2022-10-09T12:23:29.257Z,101274.47
2022-10-09T12:25:37.280Z,101273.5
2022-10-09T12:27:44.701Z,101272.55
2022-10-09T12:29:53.194Z,101267.56
2022-10-09T12:32:00.178Z,101266.52
2022-10-09T12:34:07.909Z,101271.48
2022-10-09T12:36:15.461Z,101262.42
2022-10-09T12:38:22.202Z,101263.73
2022-10-09T12:40:29.484Z,101264.2
2022-10-09T12:42:37.558Z,101269.32
2022-10-09T12:44:45.609Z,101263.73
2022-10-09T12:46:52.476Z,101269.36
2022-10-09T12:48:59.399Z,101270.27
2022-10-09T12:51:06.791Z,101269.27
2022-10-09T12:53:13.223Z,101266.66
2022-10-09T12:55:19.923Z,101273.3
2022-10-09T12:57:29.341Z,101274.87
2022-10-09T12:59:37.137Z,101281.31
2022-10-09T13:01:43.870Z,101283.84
2022-10-09T13:03:53.756Z,101283.66
2022-10-09T13:06:00.439Z,101288.05
2022-10-09T13:08:07.125Z,101291.96
2022-10-09T13:10:14.595Z,101289.77
2022-10-09T13:12:22.662Z,101292.68
2022-10-09T13:14:30.025Z,101298.02
2022-10-09T13:16:37.329Z,101299.16
2022-10-09T13:18:46.492Z,101301.22
2022-10-09T13:20:52.865Z,101303.19
2022-10-09T13:22:59.512Z,101301.2
2022-10-09T13:25:05.897Z,101304.66
2022-10-09T13:27:13.247Z,101299.81
2022-10-09T13:29:20.251Z,101295.63
2022-10-09T13:31:28.046Z,101292.2
2022-10-09T13:33:37.253Z,101295.42
2022-10-09T13:35:45.449Z,101293.02
2022-10-09T13:37:54.412Z,101291.41
2022-10-09T13:40:02.139Z,101289.04
2022-10-09T13:42:10.884Z,101286.25
2022-10-09T13:44:17.414Z,101287.41
2022-10-09T13:46:24.666Z,101284.83
2022-10-09T13:48:32.608Z,101281.81
2022-10-09T13:50:41.894Z,101285.36
2022-10-09T13:52:51.178Z,101284.8
2022-10-09T13:54:59.415Z,101283.3
2022-10-09T13:57:06.126Z,101286.27
2022-10-09T13:59:12.579Z,101281.93
2022-10-09T14:01:19.667Z,101280.85
2022-10-09T14:03:27.438Z,101281.63
2022-10-09T14:05:35.379Z,101280.11
2022-10-09T14:07:41.779Z,101281.31
2022-10-09T14:09:49.490Z,101277.06
2022-10-09T14:11:55.979Z,101277.09
2022-10-09T14:14:02.531Z,101279.02
2022-10-09T14:16:10.997Z,101277.14
2022-10-09T14:18:17.185Z,101274.56
2022-10-09T14:20:25.126Z,101274.35
2022-10-09T14:22:31.549Z,101274.13
2022-10-09T14:24:39.080Z,101273.72
2022-10-09T14:26:52.325Z,101275.29
2022-10-09T14:29:00.275Z,101276.17
2022-10-09T14:31:06.721Z,101272.91
2022-10-09T14:33:13.581Z,101279.15
2022-10-09T14:35:23.119Z,101275.23
2022-10-09T14:37:43.115Z,101280.26
2022-10-09T14:39:49.991Z,101276.67
2022-10-09T14:41:56.702Z,101270.06
2022-10-09T14:44:03.441Z,101270.28
2022-10-09T14:46:10.123Z,101272.41
2022-10-09T14:48:17.307Z,101270.7
2022-10-09T14:50:23.911Z,101269.27
2022-10-09T14:52:30.466Z,101268.44
2022-10-09T14:54:37.541Z,101270.32
2022-10-09T14:56:45.614Z,101272.03
2022-10-09T14:58:52.557Z,101271.12
2022-10-09T15:00:58.828Z,101270.45
2022-10-09T15:03:06.164Z,101270.64
2022-10-09T15:05:13.030Z,101270.28
2022-10-09T15:07:19.269Z,101273.03
2022-10-09T15:09:26.175Z,101272.72
2022-10-09T15:11:33.019Z,101269.33
2022-10-09T15:13:40.444Z,101269
2022-10-09T15:15:50.607Z,101272.95
2022-10-09T15:17:57.976Z,101272.7
2022-10-09T15:20:04.405Z,101277.08
2022-10-09T15:22:11.345Z,101281.11
2022-10-09T15:24:19.705Z,101285.05
2022-10-09T15:26:26.609Z,101289.45
2022-10-09T15:28:33.393Z,101290.7
2022-10-09T15:30:40.158Z,101290.53
2022-10-09T15:32:46.462Z,101296.89
2022-10-09T15:34:54.534Z,101296.97
2022-10-09T15:37:00.798Z,101303.02
2022-10-09T15:39:08.880Z,101304.28
2022-10-09T15:41:16.640Z,101308.63
2022-10-09T15:43:23.042Z,101310.58
2022-10-09T15:45:43.467Z,101311.36
2022-10-09T15:47:52.972Z,101316.42
2022-10-09T15:49:59.758Z,101316.41
2022-10-09T15:52:06.281Z,101317.55
2022-10-09T15:54:14.085Z,101319.05
2022-10-09T15:56:21.062Z,101317.83
2022-10-09T15:58:31.974Z,101323.56
2022-10-09T16:00:38.377Z,101324.25
2022-10-09T16:02:46.007Z,101326.06
2022-10-09T16:04:54.481Z,101330.49
2022-10-09T16:07:00.902Z,101330.72
2022-10-09T16:09:08.787Z,101328.75
2022-10-09T16:11:15.004Z,101332.03
2022-10-09T16:13:32.520Z,101333.28
2022-10-09T16:15:38.740Z,101337.67
2022-10-09T16:17:45.080Z,101336.7
2022-10-09T16:19:52.783Z,101335.58
2022-10-09T16:21:59.109Z,101340.67
2022-10-09T16:24:06.506Z,101343.38
2022-10-09T16:26:12.769Z,101349.27
2022-10-09T16:28:19.822Z,101349.23
2022-10-09T16:30:26.132Z,101349.77
2022-10-09T16:32:33.404Z,101343.94
2022-10-09T16:34:41.503Z,101341.36
2022-10-09T16:36:47.785Z,101342.19
2022-10-09T16:38:55.555Z,101343.27
2022-10-09T16:41:04.078Z,101345.58
2022-10-09T16:43:12.191Z,101343.72
2022-10-09T16:45:18.494Z,101350.2
2022-10-09T16:47:25.110Z,101348.58
2022-10-09T16:49:32.604Z,101352.63
2022-10-09T16:51:40.450Z,101349.76
2022-10-09T16:53:46.396Z,101354.92
2022-10-09T16:55:52.971Z,101355.71
2022-10-09T16:58:00.175Z,101360.88
2022-10-09T17:00:07.657Z,101360.83
2022-10-09T17:02:14.963Z,101363.95
2022-10-09T17:04:26.467Z,101368.22
2022-10-09T17:06:34.419Z,101364.13
2022-10-09T17:08:40.962Z,101367.07
2022-10-09T17:10:47.574Z,101365.97
2022-10-09T17:12:56.776Z,101365.11
2022-10-09T17:15:04.399Z,101367.88
2022-10-09T17:17:14.723Z,101366.24
2022-10-09T17:19:22.999Z,101365.7
2022-10-09T17:21:36.187Z,101363.48
2022-10-09T17:23:46.563Z,101363.73
2022-10-09T17:25:54.917Z,101364.23
2022-10-09T17:28:10.570Z,101366.16
2022-10-09T17:30:20.915Z,101365.81
2022-10-09T17:32:32.396Z,101370.73
2022-10-09T17:34:44.575Z,101372.16
2022-10-09T17:36:52.536Z,101370.84
2022-10-09T17:39:00.768Z,101371.02
2022-10-09T17:41:09.365Z,101367.38
2022-10-09T17:43:23.675Z,101370.59
2022-10-09T17:45:39.305Z,101371.66
2022-10-09T17:47:48.583Z,101373.61
2022-10-09T17:49:56.470Z,101370.84
2022-10-09T17:52:04.275Z,101373.45
2022-10-09T17:54:13.962Z,101370.18
2022-10-09T17:56:24.192Z,101372.92
2022-10-09T17:58:31.644Z,101376.48
2022-10-09T18:00:39.576Z,101381.3
2022-10-09T18:02:49.229Z,101380.84
2022-10-09T18:04:57.207Z,101381.07
2022-10-09T18:07:04.460Z,101383.29
2022-10-09T18:09:15.485Z,101381.3
2022-10-09T18:11:22.199Z,101382.28
2022-10-09T18:13:30.210Z,101382.81
2022-10-09T18:15:40.747Z,101384.78
2022-10-09T18:17:54.420Z,101386.94
2022-10-09T18:20:01.935Z,101391
2022-10-09T18:22:15.382Z,101391.97
2022-10-09T18:24:25.167Z,101392.7
2022-10-09T18:26:32.559Z,101393.38
2022-10-09T18:28:41.129Z,101395.66
2022-10-09T18:30:55.385Z,101399.14
2022-10-09T18:33:04.249Z,101398.38
2022-10-09T18:35:12.784Z,101409.08
2022-10-09T18:37:24.810Z,101414.54
2022-10-09T18:39:35.551Z,101419.34
2022-10-09T18:41:45.279Z,101412.24
2022-10-09T18:43:54.437Z,101409.45
2022-10-09T18:46:04.485Z,101405.67
2022-10-09T18:48:12.917Z,101407.13
2022-10-09T18:50:23.666Z,101411.64
2022-10-09T18:52:31.820Z,101414.22
2022-10-09T18:54:49.174Z,101416.13
2022-10-09T18:56:57.112Z,101415.39
2022-10-09T18:59:08.304Z,101419.5
2022-10-09T19:01:16.292Z,101417.52
2022-10-09T19:03:27.158Z,101421.44
2022-10-09T19:05:35.981Z,101420.75
2022-10-09T19:07:43.647Z,101418.84
2022-10-09T19:10:04.050Z,101421.59
2022-10-09T19:12:12.492Z,101421.55
2022-10-09T19:14:21.836Z,101419.84
2022-10-09T19:16:28.839Z,101422.41
2022-10-09T19:18:35.586Z,101421.64
2022-10-09T19:20:43.917Z,101421.3
2022-10-09T19:22:52.968Z,101431.06
2022-10-09T19:25:00.176Z,101427.13
2022-10-09T19:27:07.280Z,101430.98
2022-10-09T19:29:14.143Z,101428.27
2022-10-09T19:31:24.012Z,101432.52
2022-10-09T19:33:33.462Z,101432.47
2022-10-09T19:35:39.944Z,101428.16
2022-10-09T19:37:50.799Z,101427.03
2022-10-09T19:39:58.143Z,101428.18
2022-10-09T19:42:04.961Z,101431.52
2022-10-09T19:44:12.405Z,101436.13
2022-10-09T19:46:23.359Z,101429.55
2022-10-09T19:48:33.058Z,101429.92
2022-10-09T19:50:39.249Z,101431.59
2022-10-09T19:52:48.633Z,101432.69
2022-10-09T19:55:12.590Z,101432.42
2022-10-09T19:57:20.005Z,101431.88
2022-10-09T19:59:31.235Z,101434.63
2022-10-09T20:01:39.474Z,101434.59
2022-10-09T20:03:46.218Z,101435.02
2022-10-09T20:05:53.209Z,101432.63
2022-10-09T20:08:01.345Z,101433.84
2022-10-09T20:10:07.740Z,101433.91
2022-10-09T20:12:14.423Z,101433.88
2022-10-09T20:14:22.475Z,101439.74
2022-10-09T20:16:43.682Z,101433.03
2022-10-09T20:18:51.168Z,101436.41
2022-10-09T20:20:57.473Z,101434.25
2022-10-09T20:23:03.547Z,101430.76
2022-10-09T20:25:09.941Z,101433.13
2022-10-09T20:27:16.048Z,101435.16
2022-10-09T20:29:22.495Z,101432.73
2022-10-09T20:31:29.031Z,101434.31
2022-10-09T20:33:35.161Z,101436.81
2022-10-09T20:35:43.003Z,101436.45
2022-10-09T20:37:49.460Z,101438.34
2022-10-09T20:39:55.796Z,101440.72
2022-10-09T20:42:03.206Z,101447.41
2022-10-09T20:44:09.536Z,101451.81
2022-10-09T20:46:15.506Z,101453.63
2022-10-09T20:48:21.686Z,101448.27
2022-10-09T20:50:29.489Z,101454.41
2022-10-09T20:52:36.009Z,101454.83
2022-10-09T20:54:44.473Z,101456.7
2022-10-09T20:56:53.383Z,101451.78
2022-10-09T20:59:01.640Z,101454.56
2022-10-09T21:01:09.107Z,101453.02
2022-10-09T21:03:15.785Z,101453.29
2022-10-09T21:05:22.244Z,101452.46
2022-10-09T21:07:30.017Z,101450.66
2022-10-09T21:09:36.123Z,101444.74
2022-10-09T21:11:44.378Z,101445.97
2022-10-09T21:13:50.551Z,101440.48
2022-10-09T21:15:57.007Z,101448.05
2022-10-09T21:18:04.284Z,101447.59
2022-10-09T21:20:10.422Z,101449.8
2022-10-09T21:22:16.932Z,101448.72
2022-10-09T21:24:23.248Z,101450.89
2022-10-09T21:26:30.689Z,101450.33
2022-10-09T21:28:37.103Z,101449.1
2022-10-09T21:30:44.552Z,101448.25
2022-10-09T21:32:51.626Z,101450.13
2022-10-09T21:34:57.793Z,101451.81
2022-10-09T21:37:37.559Z,101453.05
2022-10-09T21:39:43.042Z,101447.88
2022-10-09T21:41:48.920Z,101444.91
2022-10-09T21:43:54.351Z,101446.58
2022-10-09T21:46:01.299Z,101447.41
2022-10-09T21:48:06.886Z,101447.13
2022-10-09T21:50:12.258Z,101443.14
2022-10-09T21:52:17.843Z,101449.8
2022-10-09T21:54:22.993Z,101454.59
2022-10-09T21:56:28.671Z,101451.3
2022-10-09T21:58:33.940Z,101452.28
2022-10-09T22:00:42.682Z,101454.77
2022-10-09T22:02:49.215Z,101447.88
2022-10-09T22:04:55.870Z,101454.02
2022-10-09T22:07:01.457Z,101452.05
2022-10-09T22:09:07.863Z,101453.31
2022-10-09T22:11:13.830Z,101448.08
2022-10-09T22:13:19.428Z,101452.56
2022-10-09T22:15:24.603Z,101457.69
2022-10-09T22:17:29.815Z,101458.76
2022-10-09T22:19:34.919Z,101461.42
2022-10-09T22:21:43.107Z,101461.52
2022-10-09T22:23:48.118Z,101460.83
2022-10-09T22:25:54.208Z,101461.09
2022-10-09T22:27:59.244Z,101459.14
2022-10-09T22:30:04.725Z,101458.24
2022-10-09T22:32:11.493Z,101455.17
2022-10-09T22:34:17.141Z,101458.11
2022-10-09T22:36:22.827Z,101462.25
2022-10-09T22:38:28.409Z,101461.63
2022-10-09T22:40:33.839Z,101461.28
2022-10-09T22:42:39.143Z,101465.55
2022-10-09T22:44:44.308Z,101467.08
2022-10-09T22:46:49.280Z,101469.38
2022-10-09T22:48:54.282Z,101464.68
2022-10-09T22:50:59.402Z,101461.55
2022-10-09T22:53:04.699Z,101461.05
2022-10-09T22:55:09.975Z,101461.3
2022-10-09T22:57:15.175Z,101462.77
2022-10-09T22:59:20.432Z,101462.56
2022-10-09T23:01:25.692Z,101458.23
2022-10-09T23:03:30.985Z,101461.59
2022-10-09T23:05:36.357Z,101457.84
2022-10-09T23:07:41.808Z,101460.54
2022-10-09T23:09:46.882Z,101456.54
2022-10-09T23:11:53.576Z,101456.17
2022-10-09T23:14:02.670Z,101455.19
2022-10-09T23:16:08.545Z,101455.69
2022-10-09T23:18:13.714Z,101455.45
2022-10-09T23:20:19.188Z,101457.48
2022-10-09T23:22:27.584Z,101460.9
2022-10-09T23:24:32.816Z,101454.55
2022-10-09T23:26:41.616Z,101454.97
2022-10-09T23:28:46.531Z,101459.94
2022-10-09T23:30:52.752Z,101448.89
2022-10-09T23:32:57.687Z,101446.45
2022-10-09T23:35:06.692Z,101448.05
2022-10-09T23:37:12.234Z,101440.77
2022-10-09T23:39:17.510Z,101440.61
2022-10-09T23:41:23.488Z,101438.49
2022-10-09T23:43:28.617Z,101437.55
2022-10-09T23:45:33.770Z,101441.87
2022-10-09T23:47:39.056Z,101443.96
2022-10-09T23:49:43.987Z,101438.86
2022-10-09T23:51:49.161Z,101439.08
2022-10-09T23:53:54.730Z,101438.03
2022-10-09T23:56:00.035Z,101435.77
2022-10-09T23:58:05.057Z,101440.45
